sensor_id;sensor_type;location;lat;lon;timestamp;pressure;altitude;pressure_sealevel;temperature;humidity
31538;BME280;18147;51.952;6.146;2022-07-23T00:00:29;101824.78;;;15.74;100.00
31538;BME280;18147;51.952;6.146;2022-07-23T00:02:54;101824.34;;;15.80;100.00
31538;BME280;18147;51.952;6.146;2022-07-23T00:05:20;101819.41;;;15.74;100.00
31538;BME280;18147;51.952;6.146;2022-07-23T00:07:45;101824.63;;;15.63;100.00
31538;BME280;18147;51.952;6.146;2022-07-23T00:10:10;101832.16;;;15.58;100.00
31538;BME280;18147;51.952;6.146;2022-07-23T00:12:36;101827.41;;;15.48;100.00
31538;BME280;18147;51.952;6.146;2022-07-23T00:15:04;101824.47;;;15.39;100.00
31538;BME280;18147;51.952;6.146;2022-07-23T00:17:29;101822.88;;;15.36;100.00
31538;BME280;18147;51.952;6.146;2022-07-23T00:19:55;101820.81;;;15.40;100.00
31538;BME280;18147;51.952;6.146;2022-07-23T00:22:20;101819.28;;;15.23;100.00
31538;BME280;18147;51.952;6.146;2022-07-23T00:24:46;101822.28;;;15.18;100.00
31538;BME280;18147;51.952;6.146;2022-07-23T00:27:11;101816.00;;;15.05;100.00
31538;BME280;18147;51.952;6.146;2022-07-23T00:29:37;101811.00;;;14.86;100.00
31538;BME280;18147;51.952;6.146;2022-07-23T00:32:02;101814.38;;;15.02;100.00
31538;BME280;18147;51.952;6.146;2022-07-23T00:34:28;101821.88;;;14.97;100.00
31538;BME280;18147;51.952;6.146;2022-07-23T00:36:53;101821.25;;;14.80;100.00
31538;BME280;18147;51.952;6.146;2022-07-23T00:39:20;101822.47;;;14.88;100.00
31538;BME280;18147;51.952;6.146;2022-07-23T00:41:46;101823.16;;;14.92;100.00
31538;BME280;18147;51.952;6.146;2022-07-23T00:44:21;101823.78;;;14.95;100.00
31538;BME280;18147;51.952;6.146;2022-07-23T00:46:48;101821.50;;;14.89;100.00
31538;BME280;18147;51.952;6.146;2022-07-23T00:49:14;101817.72;;;14.79;100.00
31538;BME280;18147;51.952;6.146;2022-07-23T00:51:40;101820.06;;;14.71;100.00
31538;BME280;18147;51.952;6.146;2022-07-23T00:54:06;101820.81;;;14.73;100.00
31538;BME280;18147;51.952;6.146;2022-07-23T00:56:32;101826.78;;;14.64;100.00
31538;BME280;18147;51.952;6.146;2022-07-23T00:59:00;101816.63;;;14.55;100.00
31538;BME280;18147;51.952;6.146;2022-07-23T01:01:26;101819.69;;;14.48;100.00
31538;BME280;18147;51.952;6.146;2022-07-23T01:03:51;101814.03;;;14.53;100.00
31538;BME280;18147;51.952;6.146;2022-07-23T01:06:17;101820.53;;;14.35;100.00
31538;BME280;18147;51.952;6.146;2022-07-23T01:08:42;101816.91;;;14.50;100.00
31538;BME280;18147;51.952;6.146;2022-07-23T01:11:08;101817.69;;;14.52;100.00
31538;BME280;18147;51.952;6.146;2022-07-23T01:13:34;101815.97;;;14.51;100.00
31538;BME280;18147;51.952;6.146;2022-07-23T01:15:59;101812.88;;;14.57;100.00
31538;BME280;18147;51.952;6.146;2022-07-23T01:18:25;101808.97;;;14.48;100.00
31538;BME280;18147;51.952;6.146;2022-07-23T01:20:50;101807.31;;;14.46;100.00
31538;BME280;18147;51.952;6.146;2022-07-23T01:23:18;101812.50;;;14.49;100.00
31538;BME280;18147;51.952;6.146;2022-07-23T01:25:54;101807.53;;;14.29;100.00
31538;BME280;18147;51.952;6.146;2022-07-23T01:28:21;101807.13;;;14.20;100.00
31538;BME280;18147;51.952;6.146;2022-07-23T01:30:48;101811.28;;;14.12;100.00
31538;BME280;18147;51.952;6.146;2022-07-23T01:33:14;101819.50;;;14.23;100.00
31538;BME280;18147;51.952;6.146;2022-07-23T01:35:39;101806.38;;;14.18;100.00
31538;BME280;18147;51.952;6.146;2022-07-23T01:38:06;101806.28;;;14.20;100.00
31538;BME280;18147;51.952;6.146;2022-07-23T01:40:32;101817.78;;;14.08;100.00
31538;BME280;18147;51.952;6.146;2022-07-23T01:42:58;101804.44;;;14.20;100.00
31538;BME280;18147;51.952;6.146;2022-07-23T01:45:23;101806.50;;;14.17;100.00
31538;BME280;18147;51.952;6.146;2022-07-23T01:47:50;101794.91;;;14.16;100.00
31538;BME280;18147;51.952;6.146;2022-07-23T01:50:16;101798.25;;;14.06;100.00
31538;BME280;18147;51.952;6.146;2022-07-23T01:53:01;101803.97;;;14.14;100.00
31538;BME280;18147;51.952;6.146;2022-07-23T01:55:27;101806.09;;;14.23;100.00
31538;BME280;18147;51.952;6.146;2022-07-23T01:57:52;101802.84;;;14.04;100.00
31538;BME280;18147;51.952;6.146;2022-07-23T02:00:21;101806.31;;;13.91;100.00
31538;BME280;18147;51.952;6.146;2022-07-23T02:02:50;101802.50;;;13.65;100.00
31538;BME280;18147;51.952;6.146;2022-07-23T02:05:15;101802.44;;;13.67;100.00
31538;BME280;18147;51.952;6.146;2022-07-23T02:07:41;101812.13;;;13.84;100.00
31538;BME280;18147;51.952;6.146;2022-07-23T02:10:08;101810.56;;;13.80;100.00
31538;BME280;18147;51.952;6.146;2022-07-23T02:12:36;101801.22;;;13.87;100.00
31538;BME280;18147;51.952;6.146;2022-07-23T02:15:02;101800.44;;;13.85;100.00
31538;BME280;18147;51.952;6.146;2022-07-23T02:17:27;101797.84;;;13.69;100.00
31538;BME280;18147;51.952;6.146;2022-07-23T02:19:53;101795.09;;;13.70;100.00
31538;BME280;18147;51.952;6.146;2022-07-23T02:22:18;101801.69;;;13.79;100.00
31538;BME280;18147;51.952;6.146;2022-07-23T02:24:43;101798.59;;;13.85;100.00
31538;BME280;18147;51.952;6.146;2022-07-23T02:27:09;101790.56;;;13.85;100.00
31538;BME280;18147;51.952;6.146;2022-07-23T02:29:34;101800.44;;;13.85;100.00
31538;BME280;18147;51.952;6.146;2022-07-23T02:32:00;101790.66;;;13.69;100.00
31538;BME280;18147;51.952;6.146;2022-07-23T02:34:26;101792.81;;;13.48;100.00
31538;BME280;18147;51.952;6.146;2022-07-23T02:36:51;101791.44;;;13.71;100.00
31538;BME280;18147;51.952;6.146;2022-07-23T02:39:17;101792.75;;;13.64;100.00
31538;BME280;18147;51.952;6.146;2022-07-23T02:41:43;101795.16;;;13.69;100.00
31538;BME280;18147;51.952;6.146;2022-07-23T02:44:09;101796.69;;;13.73;100.00
31538;BME280;18147;51.952;6.146;2022-07-23T02:46:35;101801.69;;;13.79;100.00
31538;BME280;18147;51.952;6.146;2022-07-23T02:49:02;101803.09;;;13.56;100.00
31538;BME280;18147;51.952;6.146;2022-07-23T02:51:30;101799.56;;;13.10;100.00
31538;BME280;18147;51.952;6.146;2022-07-23T02:54:00;101797.47;;;13.15;100.00
31538;BME280;18147;51.952;6.146;2022-07-23T02:56:25;101792.03;;;13.16;100.00
31538;BME280;18147;51.952;6.146;2022-07-23T02:58:54;101795.94;;;13.11;100.00
31538;BME280;18147;51.952;6.146;2022-07-23T03:01:21;101793.75;;;13.17;100.00
31538;BME280;18147;51.952;6.146;2022-07-23T03:03:46;101790.03;;;13.20;100.00
31538;BME280;18147;51.952;6.146;2022-07-23T03:06:12;101792.41;;;13.26;100.00
31538;BME280;18147;51.952;6.146;2022-07-23T03:08:41;101795.47;;;13.34;100.00
31538;BME280;18147;51.952;6.146;2022-07-23T03:11:07;101797.19;;;13.35;100.00
31538;BME280;18147;51.952;6.146;2022-07-23T03:13:41;101792.72;;;13.36;100.00
31538;BME280;18147;51.952;6.146;2022-07-23T03:16:06;101787.94;;;13.41;100.00
31538;BME280;18147;51.952;6.146;2022-07-23T03:18:35;101797.56;;;13.29;100.00
31538;BME280;18147;51.952;6.146;2022-07-23T03:21:00;101806.72;;;13.25;100.00
31538;BME280;18147;51.952;6.146;2022-07-23T03:23:26;101798.88;;;13.22;100.00
31538;BME280;18147;51.952;6.146;2022-07-23T03:25:52;101799.28;;;13.14;100.00
31538;BME280;18147;51.952;6.146;2022-07-23T03:28:18;101801.31;;;13.11;100.00
31538;BME280;18147;51.952;6.146;2022-07-23T03:30:46;101798.09;;;13.04;100.00
31538;BME280;18147;51.952;6.146;2022-07-23T03:33:19;101800.56;;;12.93;100.00
31538;BME280;18147;51.952;6.146;2022-07-23T03:35:47;101807.28;;;12.84;100.00
31538;BME280;18147;51.952;6.146;2022-07-23T03:38:24;101811.97;;;12.65;100.00
31538;BME280;18147;51.952;6.146;2022-07-23T03:40:49;101810.31;;;12.78;100.00
31538;BME280;18147;51.952;6.146;2022-07-23T03:43:15;101808.88;;;12.73;100.00
31538;BME280;18147;51.952;6.146;2022-07-23T03:45:44;101812.06;;;12.63;100.00
31538;BME280;18147;51.952;6.146;2022-07-23T03:48:09;101817.16;;;12.68;100.00
31538;BME280;18147;51.952;6.146;2022-07-23T03:50:35;101818.19;;;12.65;100.00
31538;BME280;18147;51.952;6.146;2022-07-23T03:53:02;101820.53;;;12.72;100.00
31538;BME280;18147;51.952;6.146;2022-07-23T03:55:28;101819.22;;;12.79;100.00
31538;BME280;18147;51.952;6.146;2022-07-23T03:57:54;101820.00;;;12.81;100.00
31538;BME280;18147;51.952;6.146;2022-07-23T04:00:19;101819.16;;;12.80;100.00
31538;BME280;18147;51.952;6.146;2022-07-23T04:02:48;101813.34;;;12.72;100.00
31538;BME280;18147;51.952;6.146;2022-07-23T04:05:15;101822.50;;;12.68;100.00
31538;BME280;18147;51.952;6.146;2022-07-23T04:07:46;101822.25;;;12.73;100.00
31538;BME280;18147;51.952;6.146;2022-07-23T04:10:13;101822.75;;;12.79;100.00
31538;BME280;18147;51.952;6.146;2022-07-23T04:12:39;101827.06;;;12.98;100.00
31538;BME280;18147;51.952;6.146;2022-07-23T04:15:08;101824.25;;;13.15;100.00
31538;BME280;18147;51.952;6.146;2022-07-23T04:17:34;101828.09;;;13.27;100.00
31538;BME280;18147;51.952;6.146;2022-07-23T04:20:01;101812.97;;;13.26;100.00
31538;BME280;18147;51.952;6.146;2022-07-23T04:22:32;101820.38;;;13.20;100.00
31538;BME280;18147;51.952;6.146;2022-07-23T04:24:58;101818.03;;;13.30;100.00
31538;BME280;18147;51.952;6.146;2022-07-23T04:27:23;101810.41;;;13.38;100.00
31538;BME280;18147;51.952;6.146;2022-07-23T04:29:49;101806.75;;;13.39;100.00
31538;BME280;18147;51.952;6.146;2022-07-23T04:32:15;101812.66;;;13.46;100.00
31538;BME280;18147;51.952;6.146;2022-07-23T04:34:40;101804.81;;;13.57;100.00
31538;BME280;18147;51.952;6.146;2022-07-23T04:37:07;101819.41;;;13.82;100.00
31538;BME280;18147;51.952;6.146;2022-07-23T04:39:32;101816.78;;;13.80;100.00
31538;BME280;18147;51.952;6.146;2022-07-23T04:41:58;101817.75;;;13.79;100.00
31538;BME280;18147;51.952;6.146;2022-07-23T04:44:24;101818.72;;;13.78;100.00
31538;BME280;18147;51.952;6.146;2022-07-23T04:46:50;101812.13;;;13.84;100.00
31538;BME280;18147;51.952;6.146;2022-07-23T04:49:17;101819.44;;;13.96;100.00
31538;BME280;18147;51.952;6.146;2022-07-23T04:51:43;101819.78;;;14.04;100.00
31538;BME280;18147;51.952;6.146;2022-07-23T04:54:11;101828.31;;;14.25;100.00
31538;BME280;18147;51.952;6.146;2022-07-23T04:56:37;101827.06;;;14.31;100.00
31538;BME280;18147;51.952;6.146;2022-07-23T04:59:04;101815.97;;;15.72;100.00
31538;BME280;18147;51.952;6.146;2022-07-23T05:01:29;101817.66;;;16.37;100.00
31538;BME280;18147;51.952;6.146;2022-07-23T05:03:55;101819.03;;;16.42;100.00
31538;BME280;18147;51.952;6.146;2022-07-23T05:06:23;101820.88;;;16.16;100.00
31538;BME280;18147;51.952;6.146;2022-07-23T05:08:48;101817.81;;;15.97;100.00
31538;BME280;18147;51.952;6.146;2022-07-23T05:11:14;101813.91;;;16.01;100.00
31538;BME280;18147;51.952;6.146;2022-07-23T05:13:39;101812.03;;;16.40;100.00
31538;BME280;18147;51.952;6.146;2022-07-23T05:16:07;101821.88;;;16.77;100.00
31538;BME280;18147;51.952;6.146;2022-07-23T05:18:32;101815.53;;;17.02;99.16
31538;BME280;18147;51.952;6.146;2022-07-23T05:20:58;101823.84;;;16.50;100.00
31538;BME280;18147;51.952;6.146;2022-07-23T05:23:23;101829.06;;;16.15;100.00
31538;BME280;18147;51.952;6.146;2022-07-23T05:25:49;101823.72;;;15.89;100.00
31538;BME280;18147;51.952;6.146;2022-07-23T05:28:16;101828.97;;;15.78;100.00
31538;BME280;18147;51.952;6.146;2022-07-23T05:30:42;101831.13;;;16.24;100.00
31538;BME280;18147;51.952;6.146;2022-07-23T05:33:11;101833.81;;;16.37;100.00
31538;BME280;18147;51.952;6.146;2022-07-23T05:35:41;101836.53;;;16.61;100.00
31538;BME280;18147;51.952;6.146;2022-07-23T05:38:19;101842.50;;;16.90;100.00
31538;BME280;18147;51.952;6.146;2022-07-23T05:40:47;101851.06;;;16.83;100.00
31538;BME280;18147;51.952;6.146;2022-07-23T05:43:13;101859.25;;;16.69;100.00
31538;BME280;18147;51.952;6.146;2022-07-23T05:45:38;101849.63;;;16.91;100.00
31538;BME280;18147;51.952;6.146;2022-07-23T05:48:04;101858.38;;;16.81;100.00
31538;BME280;18147;51.952;6.146;2022-07-23T05:50:35;101850.59;;;16.90;100.00
31538;BME280;18147;51.952;6.146;2022-07-23T05:53:26;101851.50;;;17.96;97.15
31538;BME280;18147;51.952;6.146;2022-07-23T05:55:58;101866.06;;;18.73;93.95
31538;BME280;18147;51.952;6.146;2022-07-23T05:58:28;101865.09;;;19.50;88.11
31538;BME280;18147;51.952;6.146;2022-07-23T06:00:54;101873.91;;;18.76;90.84
31538;BME280;18147;51.952;6.146;2022-07-23T06:03:21;101876.09;;;18.82;90.38
31538;BME280;18147;51.952;6.146;2022-07-23T06:05:46;101868.44;;;19.10;90.16
31538;BME280;18147;51.952;6.146;2022-07-23T06:08:12;101874.63;;;19.33;89.29
31538;BME280;18147;51.952;6.146;2022-07-23T06:10:38;101875.75;;;19.51;83.78
31538;BME280;18147;51.952;6.146;2022-07-23T06:13:04;101871.44;;;18.84;85.51
31538;BME280;18147;51.952;6.146;2022-07-23T06:15:30;101872.25;;;18.96;86.45
31538;BME280;18147;51.952;6.146;2022-07-23T06:17:55;101869.59;;;20.02;80.64
31538;BME280;18147;51.952;6.146;2022-07-23T06:20:22;101869.22;;;19.65;82.72
31538;BME280;18147;51.952;6.146;2022-07-23T06:22:47;101861.41;;;19.92;79.79
31538;BME280;18147;51.952;6.146;2022-07-23T06:25:13;101863.88;;;19.75;80.94
31538;BME280;18147;51.952;6.146;2022-07-23T06:27:41;101869.53;;;20.13;78.45
31538;BME280;18147;51.952;6.146;2022-07-23T06:30:07;101864.06;;;20.04;79.95
31538;BME280;18147;51.952;6.146;2022-07-23T06:32:33;101862.94;;;20.67;77.69
31538;BME280;18147;51.952;6.146;2022-07-23T06:35:01;101865.81;;;20.66;79.45
31538;BME280;18147;51.952;6.146;2022-07-23T06:37:27;101860.31;;;20.97;77.91
31538;BME280;18147;51.952;6.146;2022-07-23T06:39:52;101858.88;;;21.02;76.37
31538;BME280;18147;51.952;6.146;2022-07-23T06:42:18;101857.19;;;21.11;75.26
31538;BME280;18147;51.952;6.146;2022-07-23T06:44:45;101857.38;;;21.48;74.24
31538;BME280;18147;51.952;6.146;2022-07-23T06:47:10;101871.75;;;21.00;75.58
31538;BME280;18147;51.952;6.146;2022-07-23T06:49:36;101868.09;;;21.30;74.32
31538;BME280;18147;51.952;6.146;2022-07-23T06:52:02;101872.31;;;21.13;76.08
31538;BME280;18147;51.952;6.146;2022-07-23T06:54:27;101876.53;;;21.37;71.47
31538;BME280;18147;51.952;6.146;2022-07-23T06:56:53;101875.78;;;21.73;69.14
31538;BME280;18147;51.952;6.146;2022-07-23T06:59:19;101879.88;;;22.16;70.71
31538;BME280;18147;51.952;6.146;2022-07-23T07:01:47;101879.88;;;22.07;70.38
31538;BME280;18147;51.952;6.146;2022-07-23T07:04:12;101880.41;;;22.39;67.63
31538;BME280;18147;51.952;6.146;2022-07-23T07:06:38;101886.13;;;22.64;68.31
31538;BME280;18147;51.952;6.146;2022-07-23T07:09:04;101884.09;;;22.75;67.25
31538;BME280;18147;51.952;6.146;2022-07-23T07:11:30;101887.63;;;22.86;61.70
31538;BME280;18147;51.952;6.146;2022-07-23T07:13:56;101888.91;;;22.82;64.80
31538;BME280;18147;51.952;6.146;2022-07-23T07:16:21;101892.19;;;23.13;62.70
31538;BME280;18147;51.952;6.146;2022-07-23T07:18:47;101892.66;;;22.43;63.50
31538;BME280;18147;51.952;6.146;2022-07-23T07:21:13;101888.34;;;22.51;65.52
31538;BME280;18147;51.952;6.146;2022-07-23T07:23:39;101895.31;;;22.63;66.00
31538;BME280;18147;51.952;6.146;2022-07-23T07:26:05;101887.25;;;22.71;64.12
31538;BME280;18147;51.952;6.146;2022-07-23T07:28:30;101887.53;;;22.40;63.94
31538;BME280;18147;51.952;6.146;2022-07-23T07:30:56;101894.69;;;22.41;65.27
31538;BME280;18147;51.952;6.146;2022-07-23T07:33:22;101896.03;;;22.18;64.43
31538;BME280;18147;51.952;6.146;2022-07-23T07:35:48;101882.47;;;22.55;60.91
31538;BME280;18147;51.952;6.146;2022-07-23T07:38:13;101893.91;;;22.86;64.65
31538;BME280;18147;51.952;6.146;2022-07-23T07:40:39;101895.47;;;22.05;66.95
31538;BME280;18147;51.952;6.146;2022-07-23T07:43:05;101899.97;;;23.08;63.77
31538;BME280;18147;51.952;6.146;2022-07-23T07:45:31;101899.44;;;22.39;67.00
31538;BME280;18147;51.952;6.146;2022-07-23T07:47:59;101903.25;;;21.80;67.58
31538;BME280;18147;51.952;6.146;2022-07-23T07:50:25;101888.19;;;21.95;66.15
31538;BME280;18147;51.952;6.146;2022-07-23T07:52:51;101894.91;;;21.14;68.35
31538;BME280;18147;51.952;6.146;2022-07-23T07:55:19;101890.53;;;21.71;65.32
31538;BME280;18147;51.952;6.146;2022-07-23T07:57:45;101901.59;;;22.63;65.01
31538;BME280;18147;51.952;6.146;2022-07-23T08:00:11;101893.38;;;22.73;61.68
31538;BME280;18147;51.952;6.146;2022-07-23T08:02:45;101902.91;;;22.87;62.83
31538;BME280;18147;51.952;6.146;2022-07-23T08:05:11;101909.09;;;22.89;61.50
31538;BME280;18147;51.952;6.146;2022-07-23T08:07:37;101918.81;;;23.37;62.08
31538;BME280;18147;51.952;6.146;2022-07-23T08:10:07;101913.97;;;24.02;58.14
31538;BME280;18147;51.952;6.146;2022-07-23T08:12:40;101910.22;;;24.29;54.70
31538;BME280;18147;51.952;6.146;2022-07-23T08:15:07;101906.38;;;23.88;56.51
31538;BME280;18147;51.952;6.146;2022-07-23T08:17:34;101907.00;;;23.64;60.06
31538;BME280;18147;51.952;6.146;2022-07-23T08:20:05;101921.50;;;23.19;57.30
31538;BME280;18147;51.952;6.146;2022-07-23T08:22:42;101914.75;;;23.23;61.10
31538;BME280;18147;51.952;6.146;2022-07-23T08:25:11;101920.91;;;23.25;56.10
31538;BME280;18147;51.952;6.146;2022-07-23T08:27:37;101917.00;;;23.99;59.54
31538;BME280;18147;51.952;6.146;2022-07-23T08:30:03;101907.69;;;23.48;55.88
31538;BME280;18147;51.952;6.146;2022-07-23T08:32:29;101915.25;;;23.90;57.04
31538;BME280;18147;51.952;6.146;2022-07-23T08:34:54;101916.41;;;23.87;57.01
31538;BME280;18147;51.952;6.146;2022-07-23T08:37:20;101926.31;;;23.07;58.30
31538;BME280;18147;51.952;6.146;2022-07-23T08:39:46;101924.56;;;22.88;60.45
31538;BME280;18147;51.952;6.146;2022-07-23T08:42:13;101926.91;;;22.64;58.83
31538;BME280;18147;51.952;6.146;2022-07-23T08:44:42;101924.31;;;22.72;59.64
31538;BME280;18147;51.952;6.146;2022-07-23T08:47:10;101920.16;;;23.50;62.12
31538;BME280;18147;51.952;6.146;2022-07-23T08:49:37;101918.03;;;22.99;62.86
31538;BME280;18147;51.952;6.146;2022-07-23T08:52:04;101920.47;;;23.02;63.97
31538;BME280;18147;51.952;6.146;2022-07-23T08:54:31;101926.09;;;23.18;60.63
31538;BME280;18147;51.952;6.146;2022-07-23T08:56:56;101929.09;;;23.61;59.02
31538;BME280;18147;51.952;6.146;2022-07-23T08:59:22;101929.63;;;23.46;55.88
31538;BME280;18147;51.952;6.146;2022-07-23T09:01:47;101933.44;;;24.07;58.94
31538;BME280;18147;51.952;6.146;2022-07-23T09:04:13;101930.53;;;23.65;55.98
31538;BME280;18147;51.952;6.146;2022-07-23T09:06:39;101924.28;;;23.72;58.73
31538;BME280;18147;51.952;6.146;2022-07-23T09:09:18;101933.78;;;23.05;58.70
31538;BME280;18147;51.952;6.146;2022-07-23T09:12:05;101933.91;;;23.04;58.27
31538;BME280;18147;51.952;6.146;2022-07-23T09:14:44;101933.19;;;23.11;58.15
31538;BME280;18147;51.952;6.146;2022-07-23T09:17:13;101930.56;;;23.37;56.78
31538;BME280;18147;51.952;6.146;2022-07-23T09:19:40;101924.84;;;23.13;58.73
31538;BME280;18147;51.952;6.146;2022-07-23T09:22:27;101917.66;;;23.93;56.35
31538;BME280;18147;51.952;6.146;2022-07-23T09:25:10;101920.41;;;22.84;57.83
31538;BME280;18147;51.952;6.146;2022-07-23T09:27:58;101920.22;;;23.59;57.06
31538;BME280;18147;51.952;6.146;2022-07-23T09:30:29;101912.25;;;23.75;61.52
31538;BME280;18147;51.952;6.146;2022-07-23T09:33:13;101914.25;;;23.91;61.20
31538;BME280;18147;51.952;6.146;2022-07-23T09:38:14;101938.03;;;23.35;62.81
31538;BME280;18147;51.952;6.146;2022-07-23T09:40:40;101930.44;;;22.74;60.36
31538;BME280;18147;51.952;6.146;2022-07-23T09:43:05;101930.84;;;23.34;57.42
31538;BME280;18147;51.952;6.146;2022-07-23T09:45:31;101933.28;;;22.92;59.93
31538;BME280;18147;51.952;6.146;2022-07-23T09:48:16;101933.34;;;22.72;62.87
31538;BME280;18147;51.952;6.146;2022-07-23T09:50:43;101938.59;;;22.46;61.16
31538;BME280;18147;51.952;6.146;2022-07-23T09:53:23;101935.66;;;21.82;64.28
31538;BME280;18147;51.952;6.146;2022-07-23T09:55:51;101932.94;;;21.82;62.30
31538;BME280;18147;51.952;6.146;2022-07-23T09:58:22;101933.63;;;22.03;62.44
31538;BME280;18147;51.952;6.146;2022-07-23T10:00:49;101933.38;;;23.00;59.15
31538;BME280;18147;51.952;6.146;2022-07-23T10:03:15;101929.25;;;22.96;58.56
31538;BME280;18147;51.952;6.146;2022-07-23T10:06:01;101934.41;;;22.52;61.12
31538;BME280;18147;51.952;6.146;2022-07-23T10:08:27;101930.94;;;22.69;60.88
31538;BME280;18147;51.952;6.146;2022-07-23T10:11:12;101929.03;;;23.35;58.95
31538;BME280;18147;51.952;6.146;2022-07-23T10:14:04;101915.25;;;23.90;56.39
31538;BME280;18147;51.952;6.146;2022-07-23T10:16:54;101917.19;;;23.80;58.89
31538;BME280;18147;51.952;6.146;2022-07-23T10:19:20;101919.97;;;23.34;57.08
31538;BME280;18147;51.952;6.146;2022-07-23T10:21:52;101906.63;;;24.20;56.57
31538;BME280;18147;51.952;6.146;2022-07-23T10:30:27;101903.53;;;24.75;57.84
31538;BME280;18147;51.952;6.146;2022-07-23T10:35:40;101908.25;;;23.87;57.16
31538;BME280;18147;51.952;6.146;2022-07-23T10:38:30;101902.81;;;24.13;56.84
31538;BME280;18147;51.952;6.146;2022-07-23T10:41:02;101904.88;;;24.19;54.22
31538;BME280;18147;51.952;6.146;2022-07-23T10:43:28;101899.84;;;24.50;52.61
31538;BME280;18147;51.952;6.146;2022-07-23T10:45:55;101900.28;;;24.72;52.75
31538;BME280;18147;51.952;6.146;2022-07-23T10:48:22;101900.44;;;25.13;52.36
31538;BME280;18147;51.952;6.146;2022-07-23T10:51:11;101890.22;;;25.23;56.29
31538;BME280;18147;51.952;6.146;2022-07-23T10:56:50;101897.56;;;24.72;59.51
31538;BME280;18147;51.952;6.146;2022-07-23T10:59:29;101901.13;;;23.94;54.53
31538;BME280;18147;51.952;6.146;2022-07-23T11:02:20;101910.28;;;23.67;61.26
31538;BME280;18147;51.952;6.146;2022-07-23T11:04:48;101904.03;;;24.19;56.43
31538;BME280;18147;51.952;6.146;2022-07-23T11:07:15;101899.44;;;24.71;52.57
31538;BME280;18147;51.952;6.146;2022-07-23T11:09:44;101904.41;;;24.84;52.78
31538;BME280;18147;51.952;6.146;2022-07-23T11:17:30;101902.44;;;25.02;54.09
31538;BME280;18147;51.952;6.146;2022-07-23T11:22:40;101905.91;;;24.78;52.85
31538;BME280;18147;51.952;6.146;2022-07-23T11:25:06;101903.63;;;24.32;53.04
31538;BME280;18147;51.952;6.146;2022-07-23T11:27:43;101914.81;;;24.46;53.81
31538;BME280;18147;51.952;6.146;2022-07-23T11:30:12;101907.66;;;25.38;53.96
31538;BME280;18147;51.952;6.146;2022-07-23T11:35:46;101912.53;;;23.72;53.78
31538;BME280;18147;51.952;6.146;2022-07-23T11:38:20;101907.78;;;24.18;53.20
31538;BME280;18147;51.952;6.146;2022-07-23T11:40:54;101905.59;;;25.16;53.76
31538;BME280;18147;51.952;6.146;2022-07-23T11:43:22;101904.59;;;25.41;48.91
31538;BME280;18147;51.952;6.146;2022-07-23T11:45:57;101900.69;;;24.85;53.05
31538;BME280;18147;51.952;6.146;2022-07-23T11:48:25;101904.16;;;24.35;54.94
31538;BME280;18147;51.952;6.146;2022-07-23T11:50:51;101900.66;;;25.27;50.94
31538;BME280;18147;51.952;6.146;2022-07-23T11:53:30;101895.22;;;25.60;48.50
31538;BME280;18147;51.952;6.146;2022-07-23T11:56:11;101893.22;;;24.95;53.75
31538;BME280;18147;51.952;6.146;2022-07-23T11:58:37;101885.88;;;24.96;51.18
31538;BME280;18147;51.952;6.146;2022-07-23T12:01:06;101889.94;;;25.67;54.26
31538;BME280;18147;51.952;6.146;2022-07-23T12:03:32;101886.53;;;25.97;55.67
31538;BME280;18147;51.952;6.146;2022-07-23T12:05:58;101886.28;;;26.48;52.41
31538;BME280;18147;51.952;6.146;2022-07-23T12:08:24;101891.63;;;26.00;54.85
31538;BME280;18147;51.952;6.146;2022-07-23T12:10:50;101892.75;;;25.08;53.78
31538;BME280;18147;51.952;6.146;2022-07-23T12:13:20;101889.41;;;24.88;50.45
31538;BME280;18147;51.952;6.146;2022-07-23T12:15:49;101889.19;;;25.08;49.62
31538;BME280;18147;51.952;6.146;2022-07-23T12:18:21;101890.81;;;24.92;48.90
31538;BME280;18147;51.952;6.146;2022-07-23T12:20:50;101894.34;;;25.43;49.77
31538;BME280;18147;51.952;6.146;2022-07-23T12:23:17;101890.94;;;25.74;48.06
31538;BME280;18147;51.952;6.146;2022-07-23T12:25:44;101901.69;;;25.35;50.93
31538;BME280;18147;51.952;6.146;2022-07-23T12:30:52;101901.13;;;25.07;49.83
31538;BME280;18147;51.952;6.146;2022-07-23T12:33:29;101892.19;;;25.79;47.61
31538;BME280;18147;51.952;6.146;2022-07-23T12:35:57;101891.97;;;26.05;48.19
31538;BME280;18147;51.952;6.146;2022-07-23T12:38:24;101894.53;;;26.15;48.46
31538;BME280;18147;51.952;6.146;2022-07-23T12:40:52;101891.38;;;26.59;46.84
31538;BME280;18147;51.952;6.146;2022-07-23T12:45:53;101882.59;;;27.03;43.33
31538;BME280;18147;51.952;6.146;2022-07-23T12:48:24;101881.75;;;26.71;45.87
31538;BME280;18147;51.952;6.146;2022-07-23T12:50:56;101884.03;;;26.91;49.28
31538;BME280;18147;51.952;6.146;2022-07-23T12:53:43;101875.03;;;26.18;48.28
31538;BME280;18147;51.952;6.146;2022-07-23T12:56:14;101876.69;;;26.35;48.29
31538;BME280;18147;51.952;6.146;2022-07-23T13:00:08;101878.84;;;25.93;48.41
31538;BME280;18147;51.952;6.146;2022-07-23T13:02:46;101877.47;;;26.05;48.40
31538;BME280;18147;51.952;6.146;2022-07-23T13:05:12;101874.19;;;26.18;46.22
31538;BME280;18147;51.952;6.146;2022-07-23T13:07:37;101869.41;;;26.20;45.89
31538;BME280;18147;51.952;6.146;2022-07-23T13:10:03;101873.88;;;25.64;46.18
31538;BME280;18147;51.952;6.146;2022-07-23T13:12:28;101873.53;;;25.99;47.71
31538;BME280;18147;51.952;6.146;2022-07-23T13:14:54;101876.09;;;25.52;49.16
31538;BME280;18147;51.952;6.146;2022-07-23T13:17:19;101879.31;;;25.23;50.57
31538;BME280;18147;51.952;6.146;2022-07-23T13:19:45;101872.19;;;25.46;47.32
31538;BME280;18147;51.952;6.146;2022-07-23T13:22:10;101880.41;;;24.27;49.25